Time;durP1;ratioP1;P1;durP2;ratioP2;P2;SDS_P1;SDS_P2;PMS_P1;PMS_P2;Temp;Humidity;BMP_temperature;BMP_pressure;BME280_temperature;BME280_humidity;BME280_pressure;Samples;Min_cycle;Max_cycle;Signal;HPM_P1;HPM_P2
2021/06/21 00:01:12;;;;;;;1999.90;999.90;;;13.00;99.90;;;;;;6126013;23;20583;-45
2021/06/21 00:03:39;;;;;;;1999.90;999.90;;;13.00;99.90;;;;;;6125823;23;20148;-45
2021/06/21 00:06:06;;;;;;;1999.90;999.90;;;13.00;99.90;;;;;;6125969;23;20147;-46
2021/06/21 00:08:33;;;;;;;1999.90;999.90;;;13.00;99.90;;;;;;6125894;23;20179;-45
2021/06/21 00:10:59;;;;;;;1999.90;999.90;;;13.00;99.90;;;;;;6125864;23;20155;-45
2021/06/21 00:13:26;;;;;;;1999.90;999.90;;;13.10;99.90;;;;;;6126150;23;20193;-45
2021/06/21 00:15:53;;;;;;;1999.90;999.90;;;13.10;99.90;;;;;;6125891;23;20194;-45
2021/06/21 00:18:20;;;;;;;1999.90;999.90;;;13.10;99.90;;;;;;6125967;23;20230;-45
2021/06/21 00:20:49;;;;;;;1999.90;999.90;;;13.10;99.90;;;;;;6125908;23;20230;-45
2021/06/21 00:23:16;;;;;;;1999.90;999.90;;;13.20;99.90;;;;;;6125740;23;20161;-45
2021/06/21 00:25:43;;;;;;;1999.90;999.90;;;13.10;99.90;;;;;;6125938;23;20171;-45
2021/06/21 00:28:10;;;;;;;1999.90;999.90;;;13.10;99.90;;;;;;6125806;23;20190;-48
2021/06/21 00:30:37;;;;;;;1999.90;999.90;;;13.10;99.90;;;;;;6125910;23;20195;-45
2021/06/21 00:33:04;;;;;;;1999.90;999.90;;;13.10;99.90;;;;;;6125778;23;20607;-45
2021/06/21 00:35:31;;;;;;;1999.90;999.90;;;13.20;99.90;;;;;;6126058;23;20571;-45
2021/06/21 00:37:58;;;;;;;1999.90;999.90;;;13.20;99.90;;;;;;6126000;23;20571;-46
2021/06/21 00:40:25;;;;;;;1999.90;999.90;;;13.20;99.90;;;;;;6125857;23;20147;-46
2021/06/21 00:42:52;;;;;;;1999.90;999.90;;;13.10;99.90;;;;;;6125839;23;20148;-45
2021/06/21 00:45:21;;;;;;;1999.90;999.90;;;13.00;99.90;;;;;;6125806;23;20148;-45
2021/06/21 00:47:50;;;;;;;1999.90;999.90;;;13.00;99.90;;;;;;6125629;23;20191;-51
2021/06/21 00:50:17;;;;;;;1999.90;999.90;;;12.90;99.90;;;;;;6125631;23;20222;-50
2021/06/21 00:52:44;;;;;;;1999.90;999.90;;;13.00;99.90;;;;;;6125564;23;20187;-45
2021/06/21 00:55:13;;;;;;;1999.90;999.90;;;13.00;99.90;;;;;;6125818;23;20151;-46
2021/06/21 00:57:40;;;;;;;1999.90;999.90;;;13.00;99.90;;;;;;6125977;23;20214;-45
2021/06/21 01:00:09;;;;;;;1999.90;999.90;;;13.00;99.90;;;;;;6127612;23;20554;-45
2021/06/21 01:02:37;;;;;;;1999.90;999.90;;;13.00;99.90;;;;;;6127334;23;20162;-45
2021/06/21 01:05:25;;;;;;;1999.90;999.90;;;13.00;99.90;;;;;;6127532;23;20167;-46
2021/06/21 01:07:53;;;;;;;1999.90;999.90;;;13.00;99.90;;;;;;6127290;23;20190;-45
2021/06/21 01:10:23;;;;;;;1999.90;999.90;;;12.90;99.90;;;;;;6127502;23;20155;-46
2021/06/21 01:12:56;;;;;;;1999.90;999.90;;;12.90;99.90;;;;;;6127292;23;20169;-45
2021/06/21 01:15:24;;;;;;;1999.90;999.90;;;12.90;99.90;;;;;;6127516;23;20210;-45
2021/06/21 01:17:52;;;;;;;1999.90;999.90;;;13.00;99.90;;;;;;6127334;23;20510;-45
2021/06/21 01:20:39;;;;;;;1999.90;999.90;;;12.90;99.90;;;;;;6127381;23;20162;-46
2021/06/21 01:23:34;;;;;;;1999.90;999.90;;;13.00;99.90;;;;;;6127454;23;20135;-45
2021/06/21 01:26:05;;;;;;;1999.90;999.90;;;12.90;99.90;;;;;;6127498;23;20163;-45
2021/06/21 01:28:59;;;;;;;1999.90;999.90;;;12.90;99.90;;;;;;6127547;23;20230;-49
2021/06/21 01:31:38;;;;;;;1999.90;999.90;;;13.00;99.90;;;;;;6127390;23;20487;-49
2021/06/21 01:34:05;;;;;;;1999.90;999.90;;;13.00;99.90;;;;;;6127479;23;20136;-45
2021/06/21 01:36:33;;;;;;;1999.90;999.90;;;13.00;99.90;;;;;;6127409;23;20154;-46
2021/06/21 01:39:01;;;;;;;1999.90;999.90;;;13.00;99.90;;;;;;6127192;23;20605;-48
2021/06/21 01:41:38;;;;;;;1999.90;999.90;;;13.10;99.90;;;;;;6127210;23;20203;-48
2021/06/21 01:44:07;;;;;;;1999.90;999.90;;;13.30;99.90;;;;;;6127296;23;20506;-48
2021/06/21 01:46:36;;;;;;;1999.90;999.90;;;13.40;99.90;;;;;;6127232;23;20158;-49
2021/06/21 01:49:07;;;;;;;1999.90;999.90;;;13.50;99.90;;;;;;6127058;23;20241;-45
2021/06/21 01:51:36;;;;;;;1999.90;999.90;;;13.90;99.90;;;;;;6127165;23;20170;-49
2021/06/21 01:54:04;;;;;;;1999.90;999.90;;;14.10;96.40;;;;;;6126960;23;20630;-49
2021/06/21 01:56:35;;;;;;;1999.90;999.90;;;14.50;94.50;;;;;;6126977;23;20220;-45
2021/06/21 01:59:05;;;;;;;1999.90;999.90;;;15.10;91.30;;;;;;6127020;23;20142;-45
2021/06/21 02:01:33;;;;;;;1999.90;999.90;;;15.50;89.50;;;;;;6126832;23;20467;-50
2021/06/21 02:04:04;;;;;;;1999.90;999.90;;;15.90;84.50;;;;;;6126850;23;20222;-46
2021/06/21 02:06:33;;;;;;;1999.90;999.90;;;16.20;82.70;;;;;;6126887;23;20147;-47
2021/06/21 02:09:01;;;;;;;1999.90;999.90;;;16.60;77.20;;;;;;6126493;23;20186;-45
2021/06/21 02:11:29;;;;;;;1999.90;999.90;;;16.70;74.60;;;;;;6126854;23;20574;-46
2021/06/21 02:13:56;;;;;;;1999.90;999.90;;;16.80;74.80;;;;;;6126780;23;20151;-45
2021/06/21 02:16:25;;;;;;;1999.90;999.90;;;16.80;74.20;;;;;;6126680;23;20175;-46
2021/06/21 02:18:53;;;;;;;1999.90;999.90;;;16.90;72.40;;;;;;6126733;23;20210;-46
2021/06/21 02:21:21;;;;;;;1999.90;999.90;;;16.90;73.00;;;;;;6126762;23;20144;-45
2021/06/21 02:23:50;;;;;;;1999.90;999.90;;;16.90;72.60;;;;;;6126661;23;20587;-47
2021/06/21 02:26:23;;;;;;;1999.90;999.90;;;16.90;71.50;;;;;;6126785;23;20591;-45
2021/06/21 02:28:53;;;;;;;1999.90;999.90;;;16.90;70.60;;;;;;6126601;23;20182;-46
2021/06/21 02:31:21;;;;;;;1999.90;999.90;;;16.90;69.70;;;;;;6126740;23;20147;-48
2021/06/21 02:33:48;;;;;;;1999.90;999.90;;;17.00;69.00;;;;;;6126491;23;20155;-46
2021/06/21 02:36:15;;;;;;;1999.90;999.90;;;17.10;67.80;;;;;;6126589;23;20143;-45
2021/06/21 02:38:42;;;;;;;1999.90;999.90;;;17.10;66.90;;;;;;6126470;23;20159;-46
2021/06/21 02:41:09;;;;;;;1999.90;999.90;;;17.20;66.20;;;;;;6126660;23;20143;-45
2021/06/21 02:43:36;;;;;;;1999.90;999.90;;;17.20;65.90;;;;;;6126558;23;20147;-46
2021/06/21 02:46:03;;;;;;;1999.90;999.90;;;17.30;64.90;;;;;;6126586;23;20155;-46
2021/06/21 02:48:30;;;;;;;1999.90;999.90;;;17.40;63.10;;;;;;6126399;23;20515;-46
2021/06/21 02:50:57;;;;;;;1999.90;999.90;;;17.50;64.20;;;;;;6126521;23;20610;-46
2021/06/21 02:54:11;;;;;;;1999.90;999.90;;;17.40;63.00;;;;;;6125986;23;20195;-48
2021/06/21 02:56:48;;;;;;;1999.90;999.90;;;17.50;62.90;;;;;;6048018;23;20153;-46
2021/06/21 02:59:18;;;;;;;1999.90;999.90;;;17.50;62.70;;;;;;6126391;23;20146;-46
2021/06/21 03:01:51;;;;;;;1999.90;999.90;;;17.50;62.90;;;;;;6126351;23;20148;-46
2021/06/21 03:04:20;;;;;;;1999.90;999.90;;;17.50;62.60;;;;;;6126366;23;20139;-48
2021/06/21 03:06:49;;;;;;;1999.90;999.90;;;17.50;63.20;;;;;;6126122;23;20214;-45
2021/06/21 03:09:19;;;;;;;1999.90;999.90;;;17.60;62.60;;;;;;6126131;23;20206;-45
2021/06/21 03:11:50;;;;;;;1999.90;999.90;;;17.50;63.40;;;;;;6126060;23;20319;-46
2021/06/21 03:14:22;;;;;;;1999.90;999.90;;;17.50;62.30;;;;;;6126272;23;20143;-46
2021/06/21 03:16:51;;;;;;;1999.90;999.90;;;17.50;63.80;;;;;;6126202;23;20159;-46
2021/06/21 03:19:18;;;;;;;1999.90;999.90;;;17.40;63.60;;;;;;6125978;23;20158;-46
2021/06/21 03:21:46;;;;;;;1999.90;999.90;;;17.40;63.80;;;;;;6125782;23;20155;-46
2021/06/21 03:24:14;;;;;;;1999.90;999.90;;;17.30;63.20;;;;;;6126105;23;20596;-45
2021/06/21 03:26:43;;;;;;;1999.90;999.90;;;17.40;63.60;;;;;;6126054;23;20155;-48
2021/06/21 03:29:15;;;;;;;1999.90;999.90;;;17.40;62.60;;;;;;6126136;23;20193;-46
2021/06/21 03:31:45;;;;;;;1999.90;999.90;;;17.40;63.30;;;;;;6126192;23;20548;-46
2021/06/21 03:34:13;;;;;;;1999.90;999.90;;;17.40;62.00;;;;;;6126146;23;20151;-49
2021/06/21 03:36:40;;;;;;;1999.90;999.90;;;17.40;62.00;;;;;;6125979;23;20247;-46
2021/06/21 03:39:07;;;;;;;1999.90;999.90;;;17.40;62.00;;;;;;6125801;23;20155;-46
2021/06/21 03:41:35;;;;;;;1999.90;999.90;;;17.40;62.70;;;;;;6125887;23;20161;-48
2021/06/21 03:44:02;;;;;;;1999.90;999.90;;;17.40;62.40;;;;;;6125956;23;20174;-47
2021/06/21 03:46:30;;;;;;;1999.90;999.90;;;17.40;62.70;;;;;;6125935;23;20173;-46
2021/06/21 03:48:58;;;;;;;1999.90;999.90;;;17.40;62.80;;;;;;6125916;23;20246;-46
2021/06/21 03:51:25;;;;;;;1999.90;999.90;;;17.40;62.80;;;;;;6125983;23;20191;-46
2021/06/21 03:53:53;;;;;;;1999.90;999.90;;;17.40;62.70;;;;;;6125777;23;20494;-46
2021/06/21 03:56:21;;;;;;;1999.90;999.90;;;17.40;62.60;;;;;;6125865;23;20603;-46
2021/06/21 03:58:51;;;;;;;1999.90;999.90;;;17.30;62.30;;;;;;6125858;23;20155;-46
2021/06/21 04:01:17;;;;;;;1999.90;999.90;;;17.30;62.90;;;;;;6125844;23;20266;-46
2021/06/21 04:03:44;;;;;;;1999.90;999.90;;;17.30;64.10;;;;;;6126111;23;20147;-46
2021/06/21 04:06:11;;;;;;;1999.90;999.90;;;17.20;64.60;;;;;;6125829;23;20178;-45
2021/06/21 04:08:38;;;;;;;1999.90;999.90;;;17.20;65.20;;;;;;6125879;23;20183;-46
2021/06/21 04:11:06;;;;;;;1999.90;999.90;;;17.20;65.30;;;;;;6125971;23;20476;-46
2021/06/21 04:13:34;;;;;;;1999.90;999.90;;;17.20;65.10;;;;;;6125786;23;20530;-46
2021/06/21 04:16:01;;;;;;;1999.90;999.90;;;17.20;65.00;;;;;;6125739;23;20234;-46
2021/06/21 04:18:28;;;;;;;1999.90;999.90;;;17.20;65.60;;;;;;6126008;23;20606;-47
2021/06/21 04:20:54;;;;;;;1999.90;999.90;;;17.20;65.40;;;;;;6125759;23;20715;-47
2021/06/21 04:23:21;;;;;;;1999.90;999.90;;;17.20;64.20;;;;;;6125930;23;20147;-47
2021/06/21 04:25:48;;;;;;;1999.90;999.90;;;17.20;65.60;;;;;;6126008;23;20150;-45
2021/06/21 04:28:15;;;;;;;1999.90;999.90;;;17.20;65.10;;;;;;6125905;23;20191;-44
2021/06/21 04:30:44;;;;;;;1999.90;999.90;;;17.20;65.00;;;;;;6125733;23;20163;-45
2021/06/21 04:33:11;;;;;;;1999.90;999.90;;;17.20;65.60;;;;;;6126287;23;20159;-45
2021/06/21 04:35:38;;;;;;;1999.90;999.90;;;17.30;65.40;;;;;;6127743;23;20150;-46
2021/06/21 04:38:04;;;;;;;1999.90;999.90;;;17.30;64.80;;;;;;6127762;23;20147;-44
2021/06/21 04:40:34;;;;;;;1999.90;999.90;;;17.40;63.30;;;;;;6127595;23;20191;-46
2021/06/21 04:43:01;;;;;;;1999.90;999.90;;;17.50;63.20;;;;;;6127635;23;20147;-47
2021/06/21 04:45:28;;;;;;;1999.90;999.90;;;17.60;61.70;;;;;;6127679;23;20574;-47
2021/06/21 04:47:55;;;;;;;1999.90;999.90;;;17.60;62.70;;;;;;6127404;23;20179;-47
2021/06/21 04:50:22;;;;;;;1999.90;999.90;;;17.50;62.50;;;;;;6127588;23;20158;-47
2021/06/21 04:52:50;;;;;;;1999.90;999.90;;;17.60;62.20;;;;;;6127515;23;20179;-46
2021/06/21 04:55:20;;;;;;;1999.90;999.90;;;17.50;62.00;;;;;;6127975;23;20139;-46
2021/06/21 04:57:47;;;;;;;1999.90;999.90;;;17.50;62.80;;;;;;6127761;23;20155;-53
2021/06/21 05:00:16;;;;;;;1999.90;999.90;;;17.60;61.00;;;;;;6127448;23;20473;-45
2021/06/21 05:02:44;;;;;;;1999.90;999.90;;;17.70;60.00;;;;;;6127402;23;20619;-46
2021/06/21 05:05:11;;;;;;;1999.90;999.90;;;17.90;59.10;;;;;;6127262;23;20159;-46
2021/06/21 05:07:40;;;;;;;1999.90;999.90;;;18.00;57.90;;;;;;6127319;23;20147;-46
2021/06/21 05:10:10;;;;;;;1999.90;999.90;;;18.10;57.30;;;;;;6127544;23;20166;-46
2021/06/21 05:12:37;;;;;;;1999.90;999.90;;;18.20;56.10;;;;;;6127202;23;20498;-50
2021/06/21 05:15:05;;;;;;;1999.90;999.90;;;18.30;56.20;;;;;;6127217;23;20158;-46
2021/06/21 05:17:33;;;;;;;1999.90;999.90;;;18.50;54.80;;;;;;6127303;23;20143;-49
2021/06/21 05:20:00;;;;;;;1999.90;999.90;;;18.60;54.60;;;;;;6127243;23;20210;-46
2021/06/21 05:22:27;;;;;;;1999.90;999.90;;;18.60;55.00;;;;;;6127162;23;20163;-46
2021/06/21 05:24:54;;;;;;;1999.90;999.90;;;18.60;54.30;;;;;;6127140;23;20587;-47
2021/06/21 05:27:21;;;;;;;1999.90;999.90;;;18.70;54.00;;;;;;6127252;23;20144;-46
2021/06/21 05:29:48;;;;;;;1999.90;999.90;;;18.80;53.70;;;;;;6101042;23;20207;-54
2021/06/21 05:32:15;;;;;;;1999.90;999.90;;;18.80;53.10;;;;;;6126781;23;20148;-46
2021/06/21 05:34:42;;;;;;;1999.90;999.90;;;18.90;53.10;;;;;;6127107;23;20159;-50
2021/06/21 05:37:10;;;;;;;1999.90;999.90;;;18.80;53.30;;;;;;6127061;23;20144;-46
2021/06/21 05:39:37;;;;;;;1999.90;999.90;;;18.80;52.80;;;;;;6126860;23;20148;-46
2021/06/21 05:42:04;;;;;;;1999.90;999.90;;;18.80;53.20;;;;;;6126657;23;20182;-46
2021/06/21 05:44:31;;;;;;;1999.90;999.90;;;18.80;53.20;;;;;;6126690;23;20165;-46
2021/06/21 05:46:58;;;;;;;1999.90;999.90;;;18.70;53.00;;;;;;6127145;23;20159;-46
2021/06/21 05:49:28;;;;;;;1999.90;999.90;;;18.70;53.20;;;;;;6127067;23;20242;-46
2021/06/21 05:51:56;;;;;;;1999.90;999.90;;;18.70;53.50;;;;;;6126892;23;20155;-46
2021/06/21 05:54:24;;;;;;;1999.90;999.90;;;18.70;53.50;;;;;;6126786;23;20195;-45
2021/06/21 05:56:51;;;;;;;1999.90;999.90;;;18.70;55.40;;;;;;6126899;23;20226;-52
2021/06/21 05:59:18;;;;;;;1999.90;999.90;;;18.70;54.50;;;;;;6126652;23;20499;-46
2021/06/21 06:01:45;;;;;;;1999.90;999.90;;;18.70;54.20;;;;;;6126729;23;20143;-50
2021/06/21 06:04:12;;;;;;;1999.90;999.90;;;18.70;54.50;;;;;;6126727;23;20157;-52
2021/06/21 06:06:38;;;;;;;1999.90;999.90;;;18.80;54.30;;;;;;6126522;23;20151;-47
2021/06/21 06:09:06;;;;;;;1999.90;999.90;;;18.80;54.80;;;;;;6126548;23;20185;-47
2021/06/21 06:11:32;;;;;;;1999.90;999.90;;;18.70;54.40;;;;;;6126905;23;20199;-44
2021/06/21 06:13:59;;;;;;;1999.90;999.90;;;18.80;54.20;;;;;;6126432;23;20522;-51
2021/06/21 06:16:26;;;;;;;1999.90;999.90;;;18.80;53.20;;;;;;6126670;23;20155;-44
2021/06/21 06:18:53;;;;;;;1999.90;999.90;;;18.90;53.40;;;;;;6126292;23;20147;-49
2021/06/21 06:21:20;;;;;;;1999.90;999.90;;;19.00;52.90;;;;;;6126398;23;20233;-47
2021/06/21 06:23:47;;;;;;;1999.90;999.90;;;19.10;53.70;;;;;;6126329;23;20156;-47
2021/06/21 06:26:14;;;;;;;1999.90;999.90;;;19.10;52.60;;;;;;6126347;23;20471;-60
2021/06/21 06:28:42;;;;;;;1999.90;999.90;;;19.20;52.70;;;;;;6126529;23;20186;-58
2021/06/21 06:31:08;;;;;;;1999.90;999.90;;;19.30;52.50;;;;;;6126537;23;20179;-53
2021/06/21 06:33:35;;;;;;;1999.90;999.90;;;19.30;54.00;;;;;;6126194;23;20175;-57
2021/06/21 06:36:03;;;;;;;1999.90;999.90;;;19.30;53.40;;;;;;6126226;23;20143;-58
2021/06/21 06:38:30;;;;;;;1999.90;999.90;;;19.30;53.40;;;;;;6126246;23;20155;-56
2021/06/21 06:40:57;;;;;;;1999.90;999.90;;;19.40;53.20;;;;;;6126442;23;20173;-47
2021/06/21 06:43:24;;;;;;;1999.90;999.90;;;19.50;52.90;;;;;;6125857;23;20155;-56
2021/06/21 06:45:51;;;;;;;1999.90;999.90;;;19.50;53.20;;;;;;6126158;23;20159;-47
2021/06/21 06:48:18;;;;;;;1999.90;999.90;;;19.60;52.70;;;;;;6125972;23;20217;-59
2021/06/21 06:50:45;;;;;;;1999.90;999.90;;;19.70;51.80;;;;;;6126154;23;20166;-58
2021/06/21 06:53:14;;;;;;;1999.90;999.90;;;19.80;52.60;;;;;;6099842;23;20562;-59
2021/06/21 06:58:25;;;;;;;1999.90;999.90;;;20.00;51.20;;;;;;6125893;23;20192;-55
2021/06/21 07:00:53;;;;;;;1999.90;999.90;;;20.10;50.50;;;;;;6123783;23;20197;-57
2021/06/21 07:03:19;;;;;;;1999.90;999.90;;;20.20;51.00;;;;;;6125364;23;20195;-52
2021/06/21 07:05:46;;;;;;;1999.90;999.90;;;20.20;50.50;;;;;;6125803;23;20155;-47
2021/06/21 07:08:13;;;;;;;1999.90;999.90;;;20.40;49.50;;;;;;6124912;23;20274;-45
2021/06/21 07:10:40;;;;;;;1999.90;999.90;;;20.50;49.80;;;;;;6099163;23;20234;-48
2021/06/21 07:13:07;;;;;;;1999.90;999.90;;;20.50;50.40;;;;;;6125969;23;20174;-46
2021/06/21 07:15:33;;;;;;;1999.90;999.90;;;20.60;50.20;;;;;;6125846;23;20151;-45
2021/06/21 07:18:00;;;;;;;1999.90;999.90;;;20.70;49.80;;;;;;6126076;23;20175;-44
2021/06/21 07:20:27;;;;;;;1999.90;999.90;;;20.80;50.00;;;;;;6125809;23;20148;-47
2021/06/21 07:22:54;;;;;;;1999.90;999.90;;;20.80;49.50;;;;;;6125782;23;20173;-56
2021/06/21 07:25:20;;;;;;;1999.90;999.90;;;20.90;49.80;;;;;;6125411;23;20226;-48
2021/06/21 07:27:47;;;;;;;1999.90;999.90;;;21.00;49.30;;;;;;6125349;23;20650;-45
2021/06/21 07:30:15;;;;;;;1999.90;999.90;;;21.10;48.60;;;;;;6125773;23;20222;-50
2021/06/21 07:32:41;;;;;;;1999.90;999.90;;;21.10;49.10;;;;;;6125505;23;20252;-45
2021/06/21 07:35:09;;;;;;;1999.90;999.90;;;21.20;48.80;;;;;;6125422;23;20482;-44
2021/06/21 07:37:36;;;;;;;1999.90;999.90;;;21.30;48.50;;;;;;6125588;23;20151;-52
2021/06/21 07:40:05;;;;;;;1999.90;999.90;;;21.40;48.10;;;;;;6125614;23;20154;-44
2021/06/21 07:42:32;;;;;;;1999.90;999.90;;;21.50;47.90;;;;;;6125567;23;20214;-46
2021/06/21 07:44:58;;;;;;;1999.90;999.90;;;21.60;47.70;;;;;;6125211;23;20546;-55
2021/06/21 07:47:25;;;;;;;1999.90;999.90;;;21.70;46.50;;;;;;6125667;23;20147;-52
2021/06/21 07:49:52;;;;;;;1999.90;999.90;;;21.90;46.30;;;;;;6125668;23;20152;-53
2021/06/21 07:52:19;;;;;;;1999.90;999.90;;;21.90;45.80;;;;;;6125424;23;20234;-44
2021/06/21 07:54:48;;;;;;;1999.90;999.90;;;22.00;46.60;;;;;;6125539;23;20178;-44
2021/06/21 07:57:15;;;;;;;1999.90;999.90;;;22.10;45.50;;;;;;6125407;23;20170;-45
2021/06/21 07:59:41;;;;;;;1999.90;999.90;;;22.20;45.70;;;;;;6125607;23;20221;-57
2021/06/21 08:02:09;;;;;;;1999.90;999.90;;;22.30;45.50;;;;;;6124814;23;20241;-49
2021/06/21 08:04:36;;;;;;;1999.90;999.90;;;22.40;46.20;;;;;;6125569;23;20485;-59
2021/06/21 08:07:04;;;;;;;1999.90;999.90;;;22.40;45.60;;;;;;6126145;23;20154;-52
2021/06/21 08:09:32;;;;;;;1999.90;999.90;;;22.60;45.40;;;;;;6127273;23;20194;-55
2021/06/21 08:11:58;;;;;;;1999.90;999.90;;;22.60;45.00;;;;;;6127570;23;20541;-58
2021/06/21 08:14:25;;;;;;;1999.90;999.90;;;22.70;45.40;;;;;;6127446;23;20151;-49
2021/06/21 08:16:52;;;;;;;1999.90;999.90;;;22.80;44.80;;;;;;6127403;23;20154;-55
2021/06/21 08:19:19;;;;;;;1999.90;999.90;;;22.90;44.70;;;;;;6127366;23;20238;-50
2021/06/21 08:21:45;;;;;;;1999.90;999.90;;;23.00;44.90;;;;;;6127323;23;20194;-58
2021/06/21 08:24:12;;;;;;;1999.90;999.90;;;23.10;44.60;;;;;;6127235;23;20658;-45
2021/06/21 08:26:39;;;;;;;1999.90;999.90;;;23.20;44.30;;;;;;6127457;23;20159;-50
2021/06/21 08:29:06;;;;;;;1999.90;999.90;;;23.20;44.60;;;;;;6127269;23;20210;-50
2021/06/21 08:31:33;;;;;;;1999.90;999.90;;;23.30;44.50;;;;;;6127192;23;20171;-49
2021/06/21 08:34:00;;;;;;;1999.90;999.90;;;23.30;44.50;;;;;;6127204;23;20156;-49
2021/06/21 08:36:27;;;;;;;1999.90;999.90;;;23.50;44.10;;;;;;6126898;23;20490;-47
2021/06/21 08:38:54;;;;;;;1999.90;999.90;;;23.60;44.20;;;;;;6126962;23;20147;-53
2021/06/21 08:41:24;;;;;;;1999.90;999.90;;;23.70;43.70;;;;;;6126995;23;20218;-49
2021/06/21 08:43:50;;;;;;;1999.90;999.90;;;23.70;44.10;;;;;;6126983;23;20178;-48
2021/06/21 08:46:18;;;;;;;1999.90;999.90;;;23.80;43.70;;;;;;6127279;23;20640;-50
2021/06/21 08:48:47;;;;;;;1999.90;999.90;;;23.90;43.20;;;;;;6127140;23;20688;-52
2021/06/21 08:51:15;;;;;;;1999.90;999.90;;;24.00;42.40;;;;;;6127179;23;20218;-50
2021/06/21 08:53:44;;;;;;;1999.90;999.90;;;24.00;42.30;;;;;;6126808;23;20221;-47
2021/06/21 08:56:11;;;;;;;1999.90;999.90;;;24.10;42.80;;;;;;6127462;23;20154;-47
2021/06/21 08:58:39;;;;;;;1999.90;999.90;;;24.20;42.60;;;;;;6127237;23;20159;-49
2021/06/21 09:01:07;;;;;;;1999.90;999.90;;;24.30;42.90;;;;;;6127000;23;20482;-54
2021/06/21 09:03:35;;;;;;;1999.90;999.90;;;24.30;42.40;;;;;;6127180;23;20181;-51
2021/06/21 09:06:03;;;;;;;1999.90;999.90;;;24.50;43.00;;;;;;6127200;23;20151;-59
2021/06/21 09:08:49;;;;;;;1999.90;999.90;;;24.50;42.10;;;;;;6127022;23;20205;-59
2021/06/21 09:11:16;;;;;;;1999.90;999.90;;;24.60;42.00;;;;;;6126968;23;20230;-48
2021/06/21 09:13:42;;;;;;;1999.90;999.90;;;24.70;41.70;;;;;;6126959;23;20647;-51
2021/06/21 09:16:09;;;;;;;1999.90;999.90;;;24.80;41.50;;;;;;6127095;23;20152;-59
2021/06/21 09:18:38;;;;;;;1999.90;999.90;;;24.80;41.70;;;;;;6126493;23;20143;-56
2021/06/21 09:21:29;;;;;;;1999.90;999.90;;;24.90;41.70;;;;;;6100644;23;20179;-56
2021/06/21 09:23:58;;;;;;;1999.90;999.90;;;24.90;41.80;;;;;;6127045;23;20139;-56
2021/06/21 09:26:28;;;;;;;1999.90;999.90;;;25.00;41.50;;;;;;6126584;23;20152;-51
2021/06/21 09:28:56;;;;;;;1999.90;999.90;;;25.00;41.30;;;;;;6126252;23;20242;-62
2021/06/21 09:31:26;;;;;;;1999.90;999.90;;;25.10;41.70;;;;;;6126755;23;20190;-48
2021/06/21 09:34:28;;;;;;;1999.90;999.90;;;25.10;41.70;;;;;;6126367;23;20159;-53
2021/06/21 09:37:07;;;;;;;1999.90;999.90;;;25.20;42.30;;;;;;6037360;23;20159;-49
2021/06/21 09:39:39;;;;;;;1999.90;999.90;;;25.30;41.30;;;;;;6116271;23;20151;-47
2021/06/21 09:42:11;;;;;;;1999.90;999.90;;;25.40;41.80;;;;;;6126278;23;20161;-52
2021/06/21 09:44:41;;;;;;;1999.90;999.90;;;25.50;42.20;;;;;;6126299;23;20490;-46
2021/06/21 09:47:20;;;;;;;1999.90;999.90;;;25.50;41.90;;;;;;6126338;23;20155;-48
2021/06/21 09:50:10;;;;;;;1999.90;999.90;;;25.60;41.30;;;;;;6126239;23;20180;-50
2021/06/21 09:52:36;;;;;;;1999.90;999.90;;;25.70;42.00;;;;;;6126066;23;20421;-47
2021/06/21 09:55:13;;;;;;;1999.90;999.90;;;25.70;40.90;;;;;;6126399;23;20147;-54
2021/06/21 09:57:41;;;;;;;1999.90;999.90;;;25.80;41.30;;;;;;6126449;23;20198;-49
2021/06/21 10:00:11;;;;;;;1999.90;999.90;;;25.90;41.30;;;;;;6126517;23;20645;-56
2021/06/21 10:02:38;;;;;;;1999.90;999.90;;;25.90;41.00;;;;;;6126517;23;20218;-53
2021/06/21 10:05:18;;;;;;;1999.90;999.90;;;26.10;41.50;;;;;;6126471;23;20148;-56
2021/06/21 10:07:45;;;;;;;1999.90;999.90;;;26.20;39.90;;;;;;6100721;23;20155;-55
2021/06/21 10:10:16;;;;;;;1999.90;999.90;;;26.30;39.80;;;;;;6126555;23;20152;-50
2021/06/21 10:12:43;;;;;;;1999.90;999.90;;;26.40;40.30;;;;;;6126861;23;20144;-55
2021/06/21 10:15:11;;;;;;;1999.90;999.90;;;26.60;37.50;;;;;;6126796;23;20622;-51
2021/06/21 10:17:39;;;;;;;1999.90;999.90;;;26.60;38.00;;;;;;6126531;23;20151;-55
2021/06/21 10:20:08;;;;;;;1999.90;999.90;;;26.70;37.50;;;;;;6126593;23;20609;-47
2021/06/21 10:22:36;;;;;;;1999.90;999.90;;;26.80;37.10;;;;;;6126352;23;20148;-56
2021/06/21 10:25:05;;;;;;;1999.90;999.90;;;26.80;36.90;;;;;;6126415;23;20199;-63
2021/06/21 10:27:33;;;;;;;1999.90;999.90;;;27.00;35.80;;;;;;6126443;23;20583;-58
2021/06/21 10:30:00;;;;;;;1999.90;999.90;;;27.00;36.00;;;;;;6126548;23;20598;-56
2021/06/21 10:32:29;;;;;;;1999.90;999.90;;;27.10;35.20;;;;;;6127609;23;20151;-59
2021/06/21 10:34:56;;;;;;;1999.90;999.90;;;27.10;35.30;;;;;;6126400;23;20599;-63
2021/06/21 10:37:25;;;;;;;1999.90;999.90;;;27.30;34.90;;;;;;6126501;23;20155;-63
2021/06/21 10:39:55;;;;;;;1999.90;999.90;;;27.20;34.60;;;;;;6126269;23;20151;-56
2021/06/21 10:42:27;;;;;;;1999.90;999.90;;;27.40;34.30;;;;;;6126275;23;20155;-62
2021/06/21 10:45:00;;;;;;;1999.90;999.90;;;27.20;33.90;;;;;;6126006;23;20144;-59
2021/06/21 10:47:40;;;;;;;1999.90;999.90;;;27.10;34.50;;;;;;6125981;23;20159;-53
2021/06/21 10:50:16;;;;;;;1999.90;999.90;;;27.10;34.80;;;;;;6126237;23;20155;-59
2021/06/21 10:52:55;;;;;;;1999.90;999.90;;;27.20;33.90;;;;;;6125946;23;20185;-59
2021/06/21 10:55:28;;;;;;;1999.90;999.90;;;27.30;34.80;;;;;;6126131;23;20575;-51
2021/06/21 10:58:00;;;;;;;1999.90;999.90;;;27.50;33.90;;;;;;6125870;23;20147;-47
2021/06/21 11:00:39;;;;;;;1999.90;999.90;;;27.60;34.30;;;;;;6126093;23;20459;-52
2021/06/21 11:03:27;;;;;;;1999.90;999.90;;;27.60;32.80;;;;;;6125878;23;20162;-45
2021/06/21 11:06:01;;;;;;;1999.90;999.90;;;27.90;33.00;;;;;;6125639;23;20159;-54
2021/06/21 11:08:45;;;;;;;1999.90;999.90;;;28.10;32.40;;;;;;6125688;23;20167;-52
2021/06/21 11:11:33;;;;;;;1999.90;999.90;;;28.20;33.00;;;;;;6125689;23;20202;-47
2021/06/21 11:14:23;;;;;;;1999.90;999.90;;;28.10;32.20;;;;;;6125743;23;20658;-47
2021/06/21 11:16:52;;;;;;;1999.90;999.90;;;28.10;32.80;;;;;;6125982;23;20132;-48
2021/06/21 11:19:26;;;;;;;1999.90;999.90;;;28.20;32.30;;;;;;6126001;23;20147;-52
2021/06/21 11:21:56;;;;;;;1999.90;999.90;;;28.20;31.60;;;;;;6125731;23;20150;-60
2021/06/21 11:24:46;;;;;;;1999.90;999.90;;;28.30;32.90;;;;;;6125713;23;20615;-56
2021/06/21 11:27:28;;;;;;;1999.90;999.90;;;28.40;32.30;;;;;;6125468;23;20522;-47
2021/06/21 11:29:58;;;;;;;1999.90;999.90;;;28.50;32.50;;;;;;6125898;23;20178;-60
2021/06/21 11:32:25;;;;;;;1999.90;999.90;;;28.50;32.50;;;;;;6125267;23;20151;-51
2021/06/21 11:34:59;;;;;;;1999.90;999.90;;;28.50;32.90;;;;;;6125158;23;20159;-45
2021/06/21 11:37:50;;;;;;;1999.90;999.90;;;28.60;32.80;;;;;;6125463;23;20139;-58
2021/06/21 11:40:23;;;;;;;1999.90;999.90;;;28.60;32.30;;;;;;6125506;23;20147;-44
2021/06/21 11:43:01;;;;;;;1999.90;999.90;;;28.50;32.20;;;;;;6125539;23;20214;-44
2021/06/21 11:45:49;;;;;;;1999.90;999.90;;;28.20;30.30;;;;;;6123581;23;20237;-43
2021/06/21 11:48:24;;;;;;;1999.90;999.90;;;28.10;31.10;;;;;;6125112;23;20677;-48
2021/06/21 11:50:52;;;;;;;1999.90;999.90;;;28.10;30.80;;;;;;6125179;23;20641;-44
2021/06/21 11:53:19;;;;;;;1999.90;999.90;;;28.10;30.70;;;;;;6125038;23;20269;-43
2021/06/21 11:55:46;;;;;;;1999.90;999.90;;;28.00;30.70;;;;;;6125029;23;20153;-53
2021/06/21 11:58:13;;;;;;;1999.90;999.90;;;27.80;32.30;;;;;;6125135;23;20174;-53
2021/06/21 12:00:40;;;;;;;1999.90;999.90;;;27.50;32.60;;;;;;6125082;23;20654;-47
2021/06/21 12:03:08;;;;;;;1999.90;999.90;;;27.10;33.90;;;;;;6125584;23;20189;-47
2021/06/21 12:05:35;;;;;;;1999.90;999.90;;;26.80;35.50;;;;;;6125324;23;20155;-46
2021/06/21 12:08:16;;;;;;;1999.90;999.90;;;26.50;35.10;;;;;;6125398;23;20241;-49
2021/06/21 12:10:43;;;;;;;1999.90;999.90;;;26.30;35.50;;;;;;6125239;23;20155;-51
2021/06/21 12:13:10;;;;;;;1999.90;999.90;;;26.20;36.60;;;;;;6125251;23;20287;-51